.
WxDataArchive / Data Records for 2014-03-28
2014-03-27 March 2014 2014-03-29

Data Records for Friday, 28 March 2014

Time	Temp	Chill	HIndex	Humid	Dewpt	 Wind 	HiWind	WindDir	Rain 	Barom
-----	----	-----	------	-----	-----	------	------	-------	-----	-----
00:00	47.3	47.3	47.3	70	38.0	2	6	90	0.00	29.647 
00:05	47.3	47.3	47.3	69	37.7	2	9	0	0.00	29.647 
00:10	47.4	47.4	47.4	69	37.7	1	5	68	0.00	29.647 
00:15	47.6	47.6	47.6	69	37.9	2	6	68	0.00	29.649 
00:20	47.7	47.7	47.7	68	37.7	1	5	248	0.00	29.649 
00:25	47.9	47.9	47.9	67	37.5	2	6	248	0.00	29.649 
00:30	48.0	48.0	48.0	66	37.2	2	7	270	0.00	29.651 
00:35	48.2	48.2	48.2	66	37.4	1	7	270	0.00	29.651 
00:40	48.3	48.3	48.3	66	37.5	2	4	248	0.00	29.651 
00:45	48.5	48.5	48.5	65	37.3	2	10	270	0.00	29.651 
00:50	48.6	48.6	48.6	65	37.4	2	5	248	0.00	29.651 
00:55	48.6	48.6	48.6	65	37.4	2	9	248	0.00	29.651 
01:00	48.9	48.9	48.9	65	37.7	2	11	248	0.00	29.652 
01:05	49.1	49.1	49.1	64	37.5	3	10	248	0.00	29.652 
01:10	49.1	49.1	49.1	65	37.8	2	6	248	0.00	29.652 
01:15	49.2	49.2	49.2	65	37.9	2	7	248	0.00	29.652 
01:20	49.2	49.2	49.2	65	37.9	2	9	248	0.00	29.652 
01:25	49.4	49.4	49.4	65	38.1	2	7	248	0.00	29.652 
01:30	49.5	49.5	49.5	65	38.2	3	11	248	0.00	29.650 
01:35	49.6	49.6	49.6	66	38.7	2	6	270	0.00	29.650 
01:40	49.8	49.8	49.8	66	38.9	2	7	248	0.00	29.650 
01:45	49.9	49.9	49.9	66	39.0	2	7	248	0.00	29.651 
01:50	49.9	49.9	49.9	67	39.4	3	10	270	0.00	29.651 
01:55	49.8	49.8	49.8	70	40.4	3	10	248	0.01	29.651 
02:00	49.5	49.5	49.5	73	41.2	3	13	248	0.00	29.646 
02:05	49.1	47.8	49.1	75	41.5	4	12	90	0.01	29.646 
02:10	48.6	48.6	48.6	78	42.1	2	9	112	0.02	29.646 
02:15	47.9	47.9	47.9	80	42.0	3	7	90	0.00	29.606 
02:20	47.7	46.2	47.7	81	42.2	4	14	90	0.00	29.606 
02:25	47.9	44.7	47.9	80	42.0	7	16	90	0.00	29.606 
02:30	48.0	46.6	48.0	80	42.1	4	9	68	0.00	29.590 
02:35	48.3	46.9	48.3	79	42.1	4	12	90	0.00	29.590 
02:40	48.5	48.5	48.5	79	42.3	3	10	248	0.00	29.590 
02:45	48.6	48.6	48.6	79	42.4	2	10	248	0.00	29.615 
02:50	48.6	48.6	48.6	79	42.4	3	10	248	0.00	29.615 
02:55	48.6	48.6	48.6	80	42.7	2	5	45	0.00	29.615 
03:00	48.9	48.9	48.9	80	43.0	2	9	248	0.00	29.610 
03:05	49.1	49.1	49.1	79	42.9	3	7	248	0.00	29.610 
03:10	49.2	49.2	49.2	79	43.0	2	10	270	0.00	29.610 
03:15	49.4	49.4	49.4	79	43.2	3	9	270	0.00	29.605 
03:20	49.5	49.5	49.5	79	43.3	3	14	270	0.00	29.605 
03:25	49.6	49.6	49.6	79	43.4	3	10	248	0.00	29.605 
03:30	49.6	49.6	49.6	80	43.7	1	5	248	0.00	29.604 
03:35	49.6	49.6	49.6	80	43.7	2	9	248	0.00	29.604 
03:40	49.8	49.8	49.8	80	43.9	3	9	248	0.00	29.604 
03:45	49.8	49.8	49.8	80	43.9	2	9	292	0.00	29.605 
03:50	49.8	49.8	49.8	80	43.9	2	8	270	0.00	29.605 
03:55	49.9	49.9	49.9	81	44.3	3	11	248	0.00	29.605 
04:00	49.9	49.9	49.9	81	44.3	3	9	248	0.00	29.594 
04:05	49.9	48.8	49.9	81	44.3	4	13	248	0.00	29.594 
04:10	49.9	49.9	49.9	81	44.3	3	9	270	0.00	29.594 
04:15	49.9	49.9	49.9	81	44.3	3	9	248	0.00	29.591 
04:20	49.9	49.9	49.9	81	44.3	3	11	270	0.00	29.591 
04:25	49.9	49.9	49.9	81	44.3	3	11	270	0.00	29.591 
04:30	49.9	49.9	49.9	80	44.0	3	8	248	0.00	29.594 
04:35	50.1	50.1	50.1	80	44.2	3	12	248	0.00	29.594 
04:40	50.1	50.1	50.1	80	44.2	2	7	248	0.00	29.594 
04:45	50.1	50.1	50.1	80	44.2	2	8	270	0.00	29.587 
04:50	50.1	50.1	50.1	80	44.2	3	9	248	0.00	29.587 
04:55	50.1	50.1	50.1	80	44.2	3	13	248	0.00	29.587 
05:00	49.9	49.9	49.9	80	44.0	2	5	270	0.00	29.587 
05:05	49.8	49.8	49.8	80	43.9	2	12	270	0.00	29.587 
05:10	49.8	49.8	49.8	80	43.9	2	7	248	0.00	29.587 
05:15	49.6	49.6	49.6	81	44.0	2	6	248	0.00	29.575 
05:20	49.5	49.5	49.5	81	43.9	2	7	248	0.00	29.575 
05:25	49.5	49.5	49.5	81	43.9	2	15	248	0.00	29.575 
05:30	49.5	49.5	49.5	81	43.9	2	6	248	0.00	29.583 
05:35	49.6	49.6	49.6	81	44.0	2	9	248	0.00	29.583 
05:40	49.8	49.8	49.8	81	44.2	3	9	248	0.00	29.583 
05:45	49.9	49.9	49.9	81	44.3	2	11	248	0.00	29.581 
05:50	49.9	49.9	49.9	81	44.3	3	10	248	0.00	29.581 
05:55	50.1	50.1	50.1	81	44.5	2	5	248	0.00	29.581 
06:00	50.1	50.1	50.1	81	44.5	2	5	248	0.00	29.586 
06:05	50.1	50.1	50.1	81	44.5	2	5	248	0.00	29.586 
06:10	50.2	50.2	50.2	81	44.6	2	7	248	0.00	29.586 
06:15	50.5	50.5	50.5	80	44.6	2	7	248	0.00	29.595 
06:20	50.7	50.7	50.7	80	44.8	3	9	248	0.00	29.595 
06:25	50.7	50.7	50.7	80	44.8	3	9	248	0.00	29.595 
06:30	50.5	50.5	50.5	81	44.9	2	6	248	0.00	29.594 
06:35	50.4	50.4	50.4	81	44.8	2	6	248	0.00	29.594 
06:40	50.2	50.2	50.2	82	44.9	1	4	248	0.00	29.594 
06:45	50.1	50.1	50.1	82	44.8	3	6	248	0.00	29.602 
06:50	50.1	50.1	50.1	82	44.8	2	6	248	0.00	29.602 
06:55	50.2	50.2	50.2	82	44.9	2	11	292	0.00	29.602 
07:00	50.2	50.2	50.2	82	44.9	1	6	248	0.00	29.604 
07:05	50.4	50.4	50.4	82	45.1	1	5	248	0.00	29.604 
07:10	50.4	50.4	50.4	82	45.1	2	5	248	0.00	29.604 
07:15	50.7	50.7	50.7	82	45.4	3	9	248	0.00	29.605 
07:20	50.8	50.8	50.8	81	45.2	3	11	248	0.00	29.605 
07:25	51.0	51.0	51.0	81	45.4	1	6	248	0.00	29.605 
07:30	51.0	51.0	51.0	81	45.4	2	11	248	0.00	29.615 
07:35	51.0	51.0	51.0	82	45.7	3	7	248	0.00	29.615 
07:40	51.0	51.0	51.0	83	46.0	2	9	248	0.00	29.615 
07:45	50.8	50.8	50.8	84	46.1	4	12	248	0.00	29.629 
07:50	50.5	50.5	50.5	85	46.2	4	9	248	0.00	29.629 
07:55	50.2	50.2	50.2	85	45.9	3	9	248	0.00	29.629 
08:00	49.8	48.6	49.8	85	45.5	4	11	270	0.00	29.639 
08:05	49.6	48.4	49.6	84	45.0	4	10	248	0.00	29.639 
08:10	49.1	47.8	49.1	83	44.2	4	8	248	0.00	29.639 
08:15	48.3	46.2	48.3	81	42.7	5	13	270	0.00	29.655 
08:20	47.9	45.8	47.9	79	41.7	5	12	248	0.00	29.655 
08:25	47.4	45.9	47.4	79	41.2	4	11	248	0.00	29.655 
08:30	46.7	44.3	46.7	80	40.9	5	11	270	0.00	29.678 
08:35	45.8	43.3	45.8	81	40.3	5	9	270	0.00	29.678 
08:40	45.4	43.6	45.4	81	39.9	4	11	248	0.00	29.678 
08:45	44.8	41.5	44.8	82	39.6	6	12	270	0.00	29.695 
08:50	44.5	42.5	44.5	83	39.7	4	6	270	0.00	29.695 
08:55	44.2	41.4	44.2	84	39.7	5	12	270	0.00	29.695 
09:00	44.1	44.1	44.1	84	39.6	3	7	248	0.00	29.701 
09:05	44.1	42.1	44.1	84	39.6	4	9	248	0.00	29.701 
09:10	44.1	42.1	44.1	84	39.6	4	9	270	0.00	29.701 
09:15	43.9	43.9	43.9	85	39.7	3	10	270	0.00	29.714 
09:20	44.1	44.1	44.1	85	39.9	2	6	248	0.00	29.714 
09:25	44.1	44.1	44.1	85	39.9	3	10	248	0.00	29.714 
09:30	43.8	41.7	43.8	85	39.6	4	9	248	0.00	29.726 
09:35	43.6	41.5	43.6	85	39.4	4	10	248	0.00	29.726 
09:40	43.3	40.3	43.3	84	38.8	5	14	270	0.00	29.726 
09:45	43.2	39.6	43.2	84	38.7	6	11	270	0.00	29.748 
09:50	43.1	40.1	43.1	84	38.6	5	10	270	0.00	29.748 
09:55	42.9	40.7	42.9	85	38.7	4	10	270	0.00	29.748 
10:00	42.6	39.5	42.6	85	38.4	5	13	270	0.00	29.770 
10:05	42.5	39.4	42.5	85	38.3	5	13	270	0.00	29.770 
10:10	42.2	39.1	42.2	86	38.3	5	12	248	0.00	29.770 
10:15	42.1	42.1	42.1	87	38.5	3	7	248	0.00	29.781 
10:20	41.9	41.9	41.9	87	38.3	3	9	248	0.00	29.781 
10:25	41.8	39.4	41.8	88	38.5	4	13	248	0.01	29.781 
10:30	41.6	38.4	41.6	88	38.3	5	13	248	0.00	29.796 
10:35	41.6	39.2	41.6	88	38.3	4	10	270	0.00	29.796 
10:40	41.5	41.5	41.5	89	38.5	3	9	248	0.00	29.796 
10:45	41.5	41.5	41.5	89	38.5	3	10	248	0.00	29.813 
10:50	41.5	41.5	41.5	89	38.5	3	7	248	0.00	29.813 
10:55	41.3	41.3	41.3	89	38.3	3	10	248	0.00	29.813 
11:00	41.3	41.3	41.3	89	38.3	3	6	248	0.00	29.827 
11:05	41.3	41.3	41.3	89	38.3	3	11	248	0.00	29.827 
11:10	41.3	41.3	41.3	89	38.3	3	7	248	0.00	29.827 
11:15	41.3	38.8	41.3	89	38.3	4	8	248	0.00	29.830 
11:20	41.3	41.3	41.3	89	38.3	3	8	248	0.00	29.830 
11:25	41.5	41.5	41.5	90	38.8	3	5	248	0.00	29.830 
11:30	41.5	41.5	41.5	90	38.8	2	5	248	0.00	29.839 
11:35	41.5	41.5	41.5	90	38.8	2	6	248	0.00	29.839 
11:40	41.5	41.5	41.5	90	38.8	1	3	270	0.00	29.839 
11:45	41.6	41.6	41.6	91	39.2	3	7	270	0.00	29.854 
11:50	41.9	41.9	41.9	91	39.5	3	5	248	0.00	29.854 
11:55	42.1	39.7	42.1	90	39.4	4	10	270	0.00	29.854 
12:00	41.9	41.9	41.9	88	38.6	3	5	248	0.00	29.864 
12:05	41.9	41.9	41.9	88	38.6	3	10	270	0.00	29.864 
12:10	41.3	38.8	41.3	85	37.1	4	9	270	0.00	29.864 
12:15	40.5	37.9	40.5	84	36.1	4	10	270	0.00	29.893 
12:20	40.1	40.1	40.1	84	35.7	3	6	270	0.00	29.893 
12:25	40.1	40.1	40.1	84	35.7	2	5	248	0.00	29.893 
12:30	40.2	40.2	40.2	84	35.8	1	7	270	0.00	29.909 
12:35	40.3	40.3	40.3	83	35.6	2	5	248	0.00	29.909 
12:40	41.3	41.3	41.3	83	36.5	3	7	270	0.00	29.909 
12:45	41.1	38.6	41.1	79	35.1	4	9	270	0.00	29.933 
12:50	40.5	40.5	40.5	79	34.5	3	6	270	0.00	29.933 
12:55	40.3	40.3	40.3	79	34.3	3	5	270	0.00	29.933 
13:00	40.2	40.2	40.2	79	34.2	2	5	270	0.00	29.951 
13:05	39.8	39.8	39.8	78	33.5	3	7	270	0.00	29.951 
13:10	39.8	39.8	39.8	79	33.8	2	5	270	0.00	29.951 
13:15	40.1	40.1	40.1	79	34.1	2	4	248	0.00	29.952 
13:20	40.6	40.6	40.6	78	34.3	1	5	248	0.00	29.952 
13:25	40.5	40.5	40.5	76	33.5	3	7	248	0.00	29.952 
13:30	40.6	40.6	40.6	77	34.0	3	6	270	0.00	29.974 
13:35	40.5	40.5	40.5	76	33.5	3	5	270	0.00	29.974 
13:40	40.6	40.6	40.6	76	33.6	3	10	270	0.00	29.974 
13:45	40.8	40.8	40.8	76	33.8	3	7	248	0.00	29.985 
13:50	40.6	40.6	40.6	75	33.3	2	6	270	0.00	29.985 
13:55	40.5	40.5	40.5	75	33.2	2	5	270	0.00	29.985 
14:00	40.3	40.3	40.3	75	33.0	3	6	270	0.00	29.998 
14:05	40.1	40.1	40.1	76	33.2	3	6	248	0.00	29.998 
14:10	40.1	40.1	40.1	76	33.2	3	7	248	0.00	29.998 
14:15	40.2	40.2	40.2	77	33.6	2	5	248	0.00	30.011 
14:20	40.5	37.9	40.5	76	33.5	4	7	270	0.00	30.011 
14:25	40.8	40.8	40.8	77	34.2	3	9	248	0.00	30.011 
14:30	41.8	41.8	41.8	77	35.1	3	6	270	0.00	30.016 
14:35	42.2	42.2	42.2	75	34.9	3	6	248	0.00	30.016 
14:40	42.6	40.3	42.6	74	34.9	4	7	270	0.00	30.016 
14:45	41.8	39.4	41.8	74	34.1	4	13	270	0.00	30.007 
14:50	41.3	38.0	41.3	74	33.6	5	11	270	0.00	30.007 
14:55	41.1	37.8	41.1	75	33.8	5	10	270	0.00	30.007 
15:00	41.3	38.0	41.3	76	34.3	5	10	270	0.00	29.994 
15:05	41.1	38.6	41.1	76	34.1	4	7	292	0.00	29.994 
15:10	41.3	38.8	41.3	77	34.6	4	10	338	0.00	29.994 
15:15	41.8	41.8	41.8	77	35.1	3	10	315	0.00	29.996 
15:20	42.1	39.7	42.1	75	34.8	4	9	338	0.00	29.996 
15:25	41.9	39.5	41.9	74	34.2	4	9	270	0.00	29.996 
15:30	41.5	39.1	41.5	73	33.5	4	12	270	0.00	30.005 
15:35	41.2	38.7	41.2	75	33.9	4	10	315	0.00	30.005 
15:40	41.5	41.5	41.5	74	33.8	3	10	248	0.00	30.005 
15:45	41.5	39.1	41.5	74	33.8	4	7	315	0.00	30.015 
15:50	41.5	39.1	41.5	73	33.5	4	8	292	0.00	30.015 
15:55	41.3	38.8	41.3	73	33.3	4	10	292	0.00	30.015 
16:00	41.3	41.3	41.3	73	33.3	3	6	338	0.00	30.028 
16:05	41.5	41.5	41.5	73	33.5	3	9	270	0.00	30.028 
16:10	41.6	39.2	41.6	73	33.6	4	8	338	0.00	30.028 
16:15	42.2	42.2	42.2	73	34.2	3	7	270	0.00	30.031 
16:20	42.1	42.1	42.1	72	33.7	3	10	315	0.00	30.031 
16:25	42.2	42.2	42.2	72	33.8	2	6	248	0.00	30.031 
16:30	42.3	42.3	42.3	71	33.6	2	5	248	0.00	30.041 
16:35	42.3	42.3	42.3	71	33.6	2	5	270	0.00	30.041 
16:40	42.1	42.1	42.1	71	33.4	3	9	292	0.00	30.041 
16:45	41.8	41.8	41.8	71	33.1	2	6	292	0.00	30.058 
16:50	41.6	41.6	41.6	72	33.3	2	6	292	0.00	30.058 
16:55	41.6	41.6	41.6	73	33.6	2	3	248	0.00	30.058 
17:00	41.5	41.5	41.5	72	33.2	2	7	338	0.00	30.063 
17:05	41.5	41.5	41.5	72	33.2	2	5	248	0.00	30.063 
17:10	41.3	41.3	41.3	72	33.0	3	6	338	0.00	30.063 
17:15	41.3	41.3	41.3	72	33.0	3	7	292	0.00	30.072 
17:20	41.3	41.3	41.3	73	33.3	2	6	315	0.00	30.072 
17:25	41.3	41.3	41.3	72	33.0	2	6	338	0.00	30.072 
17:30	41.3	41.3	41.3	72	33.0	2	5	315	0.00	30.080 
17:35	41.3	41.3	41.3	72	33.0	2	5	270	0.00	30.080 
17:40	41.2	41.2	41.2	72	32.9	2	5	292	0.00	30.080 
17:45	41.1	41.1	41.1	72	32.8	2	5	270	0.00	30.089 
17:50	40.9	40.9	40.9	72	32.6	2	9	292	0.00	30.089 
17:55	40.6	40.6	40.6	73	32.6	2	5	315	0.00	30.089 
18:00	40.8	40.8	40.8	73	32.8	1	3	315	0.00	30.093 
18:05	40.6	40.6	40.6	72	32.3	2	6	338	0.00	30.093 
18:10	40.3	40.3	40.3	73	32.3	2	6	292	0.00	30.093 
18:15	40.1	40.1	40.1	73	32.2	2	4	338	0.00	30.095 
18:20	39.9	39.9	39.9	73	32.0	2	4	270	0.00	30.095 
18:25	39.8	39.8	39.8	73	31.9	2	6	292	0.00	30.095 
18:30	39.6	39.6	39.6	74	32.0	2	5	0	0.00	30.093 
18:35	39.2	39.2	39.2	74	31.6	3	9	315	0.00	30.093 
18:40	39.2	39.2	39.2	75	32.0	2	6	292	0.00	30.093 
18:45	39.1	39.1	39.1	75	31.9	3	7	292	0.00	30.094 
18:50	38.9	38.9	38.9	75	31.7	2	6	0	0.00	30.094 
18:55	38.8	38.8	38.8	75	31.6	1	5	338	0.00	30.094 
19:00	38.8	38.8	38.8	75	31.6	2	6	292	0.00	30.096 
19:05	38.5	38.5	38.5	75	31.3	2	6	338	0.00	30.096 
19:10	38.3	38.3	38.3	75	31.1	2	5	338	0.00	30.096 
19:15	38.2	38.2	38.2	75	31.0	3	10	315	0.00	30.100 
19:20	38.0	38.0	38.0	76	31.1	2	5	270	0.00	30.100 
19:25	37.9	37.9	37.9	76	31.0	2	5	315	0.00	30.100 
19:30	37.9	37.9	37.9	76	31.0	1	5	292	0.00	30.104 
19:35	37.8	37.8	37.8	76	30.9	1	5	315	0.00	30.104 
19:40	37.6	37.6	37.6	76	30.7	1	4	315	0.00	30.104 
19:45	37.5	37.5	37.5	76	30.6	1	3	22	0.00	30.110 
19:50	37.2	37.2	37.2	77	30.7	1	4	338	0.00	30.110 
19:55	37.0	37.0	37.0	77	30.5	3	5	338	0.00	30.110 
20:00	36.8	36.8	36.8	77	30.3	1	4	0	0.00	30.112 
20:05	36.6	36.6	36.6	77	30.1	2	5	270	0.00	30.112 
20:10	36.6	36.6	36.6	78	30.4	1	3	292	0.00	30.112 
20:15	36.5	36.5	36.5	78	30.3	1	3	292	0.00	30.117 
20:20	36.5	36.5	36.5	78	30.3	1	5	338	0.00	30.117 
20:25	36.2	36.2	36.2	78	30.0	1	6	315	0.00	30.117 
20:30	36.0	36.0	36.0	78	29.8	0	2	315	0.00	30.126 
20:35	36.0	36.0	36.0	79	30.1	1	3	315	0.00	30.126 
20:40	36.0	36.0	36.0	79	30.1	2	6	315	0.00	30.126 
20:45	36.0	36.0	36.0	79	30.1	1	7	338	0.00	30.135 
20:50	35.8	35.8	35.8	79	29.9	2	7	338	0.00	30.135 
20:55	35.6	35.6	35.6	79	29.7	2	6	338	0.00	30.135 
21:00	35.5	35.5	35.5	79	29.6	2	6	338	0.00	30.150 
21:05	35.5	35.5	35.5	80	30.0	1	4	270	0.00	30.150 
21:10	35.3	35.3	35.3	80	29.8	1	4	0	0.00	30.150 
21:15	35.2	35.2	35.2	80	29.7	1	4	338	0.00	30.156 
21:20	35.2	35.2	35.2	80	29.7	0	2	338	0.00	30.156 
21:25	35.2	35.2	35.2	81	30.0	0	2	338	0.00	30.156 
21:30	35.2	35.2	35.2	81	30.0	1	3	338	0.00	30.168 
21:35	35.0	35.0	35.0	81	29.8	1	7	0	0.00	30.168 
21:40	35.0	35.0	35.0	81	29.8	0	3	22	0.00	30.168 
21:45	35.2	35.2	35.2	81	30.0	0	2	0	0.00	30.170 
21:50	35.2	35.2	35.2	81	30.0	1	5	90	0.00	30.170 
21:55	35.0	35.0	35.0	81	29.8	1	3	45	0.00	30.170 
22:00	35.0	35.0	35.0	81	29.8	0	2	45	0.00	30.163 
22:05	35.0	35.0	35.0	82	30.1	0	2	45	0.00	30.163 
22:10	35.2	35.2	35.2	82	30.3	0	2	45	0.00	30.163 
22:15	35.2	35.2	35.2	82	30.3	0	2	45	0.00	30.170 
22:20	35.2	35.2	35.2	82	30.3	1	6	90	0.00	30.170 
22:25	35.0	35.0	35.0	82	30.1	1	4	112	0.00	30.170 
22:30	35.0	35.0	35.0	82	30.1	1	6	112	0.00	30.170 
22:35	34.9	34.9	34.9	82	30.0	1	5	112	0.00	30.170 
22:40	34.7	34.7	34.7	82	29.8	1	5	112	0.00	30.170 
22:45	34.6	34.6	34.6	82	29.7	0	2	68	0.00	30.170 
22:50	34.6	34.6	34.6	82	29.7	0	4	90	0.00	30.170 
22:55	34.6	34.6	34.6	83	30.0	0	2	90	0.00	30.170 
23:00	34.6	34.6	34.6	83	30.0	1	6	112	0.00	30.174 
23:05	34.6	34.6	34.6	83	30.0	2	6	112	0.00	30.174 
23:10	34.6	34.6	34.6	83	30.0	1	5	112	0.00	30.174 
23:15	34.6	34.6	34.6	83	30.0	1	3	112	0.00	30.182 
23:20	34.6	34.6	34.6	83	30.0	1	4	112	0.00	30.182 
23:25	34.6	34.6	34.6	83	30.0	1	7	112	0.00	30.182 
23:30	34.6	34.6	34.6	84	30.3	1	5	112	0.00	30.177 
23:35	34.6	34.6	34.6	84	30.3	3	9	112	0.00	30.177 
23:40	34.6	34.6	34.6	84	30.3	2	6	90	0.00	30.177 
23:45	34.7	34.7	34.7	84	30.4	2	5	90	0.00	30.165 
23:50	34.7	34.7	34.7	84	30.4	2	6	90	0.00	30.165 
23:55	34.7	34.7	34.7	84	30.4	3	5	90	0.00	30.165 

CoCoRaHS
IN-AL-39
A2 Web Hosting
Creative Commons License
GoDaddy
search engine by freefind advanced

loaded 2018-11-15 03:34:49 • last modified 2010-11-18 10:43:29
Privacy PolicyDisclaimer
• wx.awcolley.com is powered by PmWiki v.2002016 •
• all content (unless otherwise noted) © 2018 A W Colley